Time;durP1;ratioP1;P1;durP2;ratioP2;P2;SDS_P1;SDS_P2;PMS_P1;PMS_P2;Temp;Humidity;BMP_temperature;BMP_pressure;BME280_temperature;BME280_humidity;BME280_pressure;Samples;Min_cycle;Max_cycle;Signal;HPM_P1;HPM_P2
2021/11/09 00:01:01;;;;;;;;;;;;;;;19.91;64.57;101379.59;5069564;28;1758;-44
2021/11/09 00:03:33;;;;;;;;;;;;;;;19.92;63.29;101392.03;5059529;28;1759;-43
2021/11/09 00:06:09;;;;;;;;;;;;;;;19.91;63.67;101384.94;5060414;28;1683;-43
2021/11/09 00:08:43;;;;;;;;;;;;;;;19.91;64.68;101384.94;5067005;28;1583;-43
2021/11/09 00:11:19;;;;;;;;;;;;;;;19.88;64.37;101385.22;5074519;28;1752;-43
2021/11/09 00:13:45;;;;;;;;;;;;;;;19.88;63.33;101391.44;5073440;28;2056;-43
2021/11/09 00:16:22;;;;;;;;;;;;;;;19.90;64.18;101384.09;5068556;28;1612;-43
2021/11/09 00:18:49;;;;;;;;;;;;;;;19.86;63.96;101396.06;5068204;28;1629;-43
2021/11/09 00:21:16;;;;;;;;;;;;;;;19.95;63.40;101407.88;5062778;28;1908;-43
2021/11/09 00:23:46;;;;;;;;;;;;;;;19.97;64.30;101403.22;5057757;28;1621;-43
2021/11/09 00:26:13;;;;;;;;;;;;;;;19.90;64.09;101404.75;5069071;28;1672;-43
2021/11/09 00:28:42;;;;;;;;;;;;;;;19.94;63.86;101411.56;5057348;28;1489;-43
2021/11/09 00:31:09;;;;;;;;;;;;;;;19.97;62.89;101408.59;5070271;28;1630;-43
2021/11/09 00:33:42;;;;;;;;;;;;;;;19.94;63.22;101408.88;5062972;28;1914;-43
2021/11/09 00:36:08;;;;;;;;;;;;;;;20.01;64.00;101418.09;5068124;28;1702;-43
2021/11/09 00:38:37;;;;;;;;;;;;;;;19.95;63.58;101408.72;5070367;28;1674;-43
2021/11/09 00:41:05;;;;;;;;;;;;;;;19.90;63.32;101426.22;5069100;28;1577;-43
2021/11/09 00:43:34;;;;;;;;;;;;;;;19.87;62.54;101427.28;5068821;28;2077;-43
2021/11/09 00:46:03;;;;;;;;;;;;;;;19.92;62.92;101437.69;5069273;28;1727;-43
2021/11/09 00:48:30;;;;;;;;;;;;;;;20.02;62.96;101449.38;5074950;28;1767;-43
2021/11/09 00:50:57;;;;;;;;;;;;;;;19.91;63.43;101441.31;5063028;28;1658;-42
2021/11/09 00:53:24;;;;;;;;;;;;;;;19.88;63.25;101434.38;5059484;28;1906;-43
2021/11/09 00:55:52;;;;;;;;;;;;;;;19.93;62.62;101437.53;5066464;28;2263;-43
2021/11/09 00:58:22;;;;;;;;;;;;;;;19.85;62.70;101430.09;5065382;28;1808;-43
2021/11/09 01:00:51;;;;;;;;;;;;;;;19.91;63.43;101436.78;5061003;28;1801;-43
2021/11/09 01:03:18;;;;;;;;;;;;;;;19.83;63.20;101447.31;5069717;28;1728;-43
2021/11/09 01:05:45;;;;;;;;;;;;;;;19.80;62.91;101440.38;5070375;28;1266;-43
2021/11/09 01:08:14;;;;;;;;;;;;;;;19.85;63.34;101445.34;5067167;28;2144;-43
2021/11/09 01:10:44;;;;;;;;;;;;;;;19.88;63.71;101446.97;5076753;28;2042;-43
2021/11/09 01:13:13;;;;;;;;;;;;;;;19.85;64.22;101451.56;5077747;28;1999;-43
2021/11/09 01:15:48;;;;;;;;;;;;;;;19.79;62.67;101470.84;5072529;28;1738;-43
2021/11/09 01:18:25;;;;;;;;;;;;;;;19.85;63.54;101470.34;5074961;28;1717;-43
2021/11/09 01:20:52;;;;;;;;;;;;;;;19.88;62.67;101481.84;5060290;28;1744;-43
2021/11/09 01:23:26;;;;;;;;;;;;;;;19.79;63.39;101481.59;5064419;28;1406;-43
2021/11/09 01:25:55;;;;;;;;;;;;;;;19.92;63.64;101472.56;5064871;28;2218;-43
2021/11/09 01:31:12;;;;;;;;;;;;;;;19.73;64.03;101487.44;5066339;28;2444;-43
2021/11/09 01:33:38;;;;;;;;;;;;;;;19.71;63.82;101470.63;5074769;28;1918;-43
2021/11/09 01:36:06;;;;;;;;;;;;;;;19.75;62.55;101469.38;5070150;28;1803;-43
2021/11/09 01:38:33;;;;;;;;;;;;;;;19.77;63.23;101462.06;5064765;28;1604;-43
2021/11/09 01:41:08;;;;;;;;;;;;;;;19.80;62.32;101461.00;5070401;28;1619;-42
2021/11/09 01:43:36;;;;;;;;;;;;;;;19.89;61.75;101440.59;5068823;28;1394;-43
2021/11/09 01:46:06;;;;;;;;;;;;;;;19.83;61.67;101439.25;5076807;28;1810;-43
2021/11/09 01:48:36;;;;;;;;;;;;;;;19.96;61.25;101449.88;5077467;28;1700;-43
2021/11/09 01:53:56;;;;;;;;;;;;;;;19.97;61.14;101464.97;5071898;28;2316;-43
2021/11/09 01:56:26;;;;;;;;;;;;;;;19.88;62.83;101444.28;5070025;28;1911;-43
2021/11/09 01:58:53;;;;;;;;;;;;;;;19.87;62.41;101443.41;5066815;28;1513;-43
2021/11/09 02:01:25;;;;;;;;;;;;;;;19.81;62.67;101450.09;5070530;28;1452;-43
2021/11/09 02:04:03;;;;;;;;;;;;;;;20.19;60.80;101447.97;5072804;28;1477;-43
2021/11/09 02:06:30;;;;;;;;;;;;;;;20.32;60.83;101448.66;5072412;28;1664;-43
2021/11/09 02:09:04;;;;;;;;;;;;;;;20.53;60.37;101446.03;5070469;28;1653;-43
2021/11/09 02:11:32;;;;;;;;;;;;;;;20.38;62.13;101444.59;5070183;28;1623;-42
2021/11/09 02:13:58;;;;;;;;;;;;;;;20.09;62.13;101441.66;5072413;28;1985;-44
2021/11/09 02:16:27;;;;;;;;;;;;;;;20.20;61.27;101445.16;5065458;28;1583;-43
2021/11/09 02:18:59;;;;;;;;;;;;;;;20.33;62.67;101442.28;5072408;28;1387;-43
2021/11/09 02:21:28;;;;;;;;;;;;;;;20.17;62.06;101434.66;5064382;28;2041;-43
2021/11/09 02:23:54;;;;;;;;;;;;;;;19.99;63.15;101420.06;5072630;28;1673;-43
2021/11/09 02:26:22;;;;;;;;;;;;;;;20.31;61.84;101403.97;5070906;28;1737;-44
2021/11/09 02:28:53;;;;;;;;;;;;;;;20.24;62.84;101395.56;5071106;28;1799;-43
2021/11/09 02:31:19;;;;;;;;;;;;;;;20.08;63.15;101376.34;5079671;28;1494;-43
2021/11/09 02:33:48;;;;;;;;;;;;;;;20.02;63.39;101387.63;5078567;28;1970;-43
2021/11/09 02:36:17;;;;;;;;;;;;;;;20.39;61.58;101400.63;5066899;28;1645;-43
2021/11/09 02:38:48;;;;;;;;;;;;;;;20.27;62.33;101378.34;5068902;28;1652;-43
2021/11/09 02:41:17;;;;;;;;;;;;;;;20.10;61.50;101385.13;5067890;28;1493;-43
2021/11/09 02:43:43;;;;;;;;;;;;;;;20.10;63.00;101398.56;5065839;28;1417;-43
2021/11/09 02:49:15;;;;;;;;;;;;;;;20.32;62.46;101402.16;5072007;28;1580;-42
2021/11/09 02:51:52;;;;;;;;;;;;;;;20.13;62.06;101392.06;5065165;28;1832;-43
2021/11/09 02:54:24;;;;;;;;;;;;;;;20.11;61.79;101386.81;5062890;28;1993;-43
2021/11/09 02:56:55;;;;;;;;;;;;;;;20.31;62.10;101412.03;5074552;28;2123;-43
2021/11/09 03:02:13;;;;;;;;;;;;;;;20.08;61.96;101418.47;5136476;22;3509;-43
2021/11/09 03:07:29;;;;;;;;;;;;;;;20.32;62.15;101423.63;5012575;28;2624;-44
2021/11/09 03:10:00;;;;;;;;;;;;;;;20.21;62.48;101401.22;5008462;28;1825;-44
2021/11/09 03:12:32;;;;;;;;;;;;;;;20.10;62.74;101401.25;5013456;28;1914;-43
2021/11/09 03:15:02;;;;;;;;;;;;;;;20.27;61.82;101397.13;5018340;28;1728;-43
2021/11/09 03:20:33;;;;;;;;;;;;;;;20.12;62.41;101410.03;5024907;28;2297;-43
2021/11/09 03:40:27;;;;;;;;;;;;;;;20.33;61.16;101438.75;5008115;28;1473;-43
2021/11/09 03:45:42;;;;;;;;;;;;;;;20.25;61.37;101442.94;5010173;28;1787;-43
2021/11/09 03:48:17;;;;;;;;;;;;;;;20.36;62.05;101442.03;5004857;28;1555;-43
2021/11/09 03:50:45;;;;;;;;;;;;;;;20.33;61.86;101444.13;5007425;28;1574;-43
2021/11/09 03:53:21;;;;;;;;;;;;;;;20.10;61.80;101433.47;5008553;28;1910;-43
2021/11/09 03:56:11;;;;;;;;;;;;;;;20.23;61.80;101444.03;5007486;28;1720;-43
2021/11/09 03:58:48;;;;;;;;;;;;;;;20.53;61.00;101454.09;5009455;28;1425;-43
2021/11/09 04:01:33;;;;;;;;;;;;;;;20.30;61.82;101444.41;5015811;28;1548;-44
2021/11/09 04:04:21;;;;;;;;;;;;;;;20.18;61.64;101446.28;5008789;28;1464;-43
2021/11/09 04:06:50;;;;;;;;;;;;;;;20.20;62.75;101466.63;5013351;28;1806;-43
2021/11/09 04:09:25;;;;;;;;;;;;;;;20.30;63.00;101468.56;4982779;28;1727;-43
2021/11/09 04:12:13;;;;;;;;;;;;;;;20.03;63.17;101469.84;5004103;28;1460;-43
2021/11/09 04:14:47;;;;;;;;;;;;;;;19.84;64.43;101465.13;5001387;28;1914;-43
2021/11/09 04:20:09;;;;;;;;;;;;;;;20.26;63.07;101508.25;5000836;28;1565;-44
2021/11/09 04:25:52;;;;;;;;;;;;;;;19.83;64.79;101499.16;5010762;28;1678;-43
2021/11/09 04:28:26;;;;;;;;;;;;;;;20.05;63.33;101500.09;5008708;28;1885;-43
2021/11/09 04:31:07;;;;;;;;;;;;;;;20.26;63.86;101494.81;5004324;28;2175;-43
2021/11/09 05:01:48;;;;;;;;;;;;;;;20.44;64.39;101520.16;5108399;28;1690;-42
2021/11/09 05:09:46;;;;;;;;;;;;;;;20.16;64.11;101532.31;5112323;28;2014;-43
2021/11/09 05:12:21;;;;;;;;;;;;;;;20.32;65.26;101549.88;5105848;28;1871;-43
2021/11/09 05:14:47;;;;;;;;;;;;;;;20.43;63.76;101542.66;5112758;27;1559;-42
2021/11/09 05:19:54;;;;;;;;;;;;;;;20.33;64.40;101543.50;5116650;28;2404;-43
2021/11/09 05:22:24;;;;;;;;;;;;;;;20.26;65.40;101529.75;5107001;28;1542;-43
2021/11/09 05:24:52;;;;;;;;;;;;;;;20.50;64.58;101543.00;5099342;28;1700;-42
2021/11/09 05:27:21;;;;;;;;;;;;;;;20.50;65.38;101534.94;5109699;28;1630;-42
2021/11/09 05:29:50;;;;;;;;;;;;;;;20.37;65.87;101524.34;5104549;28;1905;-42
2021/11/09 05:32:27;;;;;;;;;;;;;;;20.24;64.76;101524.50;5106958;28;1633;-41
2021/11/09 05:34:58;;;;;;;;;;;;;;;20.52;64.53;101529.44;5107649;28;1669;-42
2021/11/09 05:37:30;;;;;;;;;;;;;;;20.47;64.38;101527.09;5107659;27;1800;-41
2021/11/09 05:40:00;;;;;;;;;;;;;;;20.24;64.74;101523.66;5111042;28;1512;-41
2021/11/09 05:42:35;;;;;;;;;;;;;;;20.19;66.24;101529.41;5106329;28;1844;-41
2021/11/09 05:45:09;;;;;;;;;;;;;;;20.30;65.08;101533.03;5109869;28;1573;-41
2021/11/09 05:47:36;;;;;;;;;;;;;;;20.44;65.07;101520.16;5102601;28;1809;-40
2021/11/09 05:50:07;;;;;;;;;;;;;;;20.32;65.11;101525.72;5103746;28;1910;-40
2021/11/09 05:52:35;;;;;;;;;;;;;;;20.10;66.11;101522.06;5102512;28;1529;-40
2021/11/09 05:55:04;;;;;;;;;;;;;;;20.13;65.36;101519.13;5110610;28;1533;-40
2021/11/09 05:57:33;;;;;;;;;;;;;;;20.39;64.86;101535.81;5104352;28;1756;-41
2021/11/09 06:00:06;;;;;;;;;;;;;;;20.40;65.23;101555.47;5104782;28;1472;-41
2021/11/09 06:05:16;;;;;;;;;;;;;;;20.14;66.25;101574.56;5090221;28;2244;-41
2021/11/09 06:07:46;;;;;;;;;;;;;;;20.37;65.15;101564.66;5093286;28;1500;-41
2021/11/09 06:10:14;;;;;;;;;;;;;;;20.38;65.16;101570.88;5087686;28;2000;-41
2021/11/09 06:12:40;;;;;;;;;;;;;;;20.31;65.20;101575.00;5092415;28;1332;-41
2021/11/09 06:15:15;;;;;;;;;;;;;;;20.14;66.46;101596.03;5091538;28;1606;-41
2021/11/09 06:17:50;;;;;;;;;;;;;;;20.15;66.38;101591.50;5095967;28;1805;-40
2021/11/09 06:20:23;;;;;;;;;;;;;;;20.03;65.89;101575.44;5089525;28;1543;-41
2021/11/09 06:22:53;;;;;;;;;;;;;;;20.10;65.43;101581.16;5095445;28;1634;-40
2021/11/09 06:25:23;;;;;;;;;;;;;;;19.93;64.68;101598.59;5092821;28;1752;-41
2021/11/09 06:27:51;;;;;;;;;;;;;;;20.22;65.75;101603.47;5095973;28;1548;-41
2021/11/09 06:30:20;;;;;;;;;;;;;;;20.48;65.43;101597.84;5093588;28;1906;-40
2021/11/09 06:32:47;;;;;;;;;;;;;;;20.44;65.51;101579.25;5092157;28;1566;-43
2021/11/09 06:35:22;;;;;;;;;;;;;;;20.15;65.86;101580.78;5091415;28;2075;-41
2021/11/09 06:38:03;;;;;;;;;;;;;;;19.96;66.09;101610.94;5093333;28;1368;-40
2021/11/09 06:40:33;;;;;;;;;;;;;;;20.31;65.52;101607.25;5090437;28;1552;-41
2021/11/09 06:43:03;;;;;;;;;;;;;;;20.33;66.07;101606.13;5094756;28;1765;-41
2021/11/09 06:45:31;;;;;;;;;;;;;;;20.15;65.80;101611.16;5087937;28;1702;-41
2021/11/09 06:48:02;;;;;;;;;;;;;;;20.09;67.07;101616.19;5100039;28;1483;-40
2021/11/09 06:50:29;;;;;;;;;;;;;;;20.24;65.89;101615.81;5086721;28;1941;-43
2021/11/09 06:52:59;;;;;;;;;;;;;;;20.31;66.12;101612.63;5088889;28;1816;-40
2021/11/09 06:55:29;;;;;;;;;;;;;;;20.21;66.97;101601.75;5086198;28;2022;-41
2021/11/09 07:00:36;;;;;;;;;;;;;;;20.05;66.63;101612.88;5087682;28;2045;-41
2021/11/09 07:03:05;;;;;;;;;;;;;;;20.37;65.78;101622.88;5082854;28;1639;-40
2021/11/09 07:05:32;;;;;;;;;;;;;;;20.43;66.23;101625.94;5088147;28;1523;-41
2021/11/09 07:08:02;;;;;;;;;;;;;;;20.33;65.93;101624.09;5093297;28;1566;-41
2021/11/09 07:10:29;;;;;;;;;;;;;;;20.23;65.99;101630.22;5091498;28;1946;-40
2021/11/09 07:12:55;;;;;;;;;;;;;;;20.32;65.52;101641.22;5081192;28;1643;-40
2021/11/09 07:15:22;;;;;;;;;;;;;;;20.60;64.04;101640.72;5080495;28;1511;-40
2021/11/09 07:17:49;;;;;;;;;;;;;;;20.59;62.85;101639.00;5096306;28;1725;-41
2021/11/09 07:20:17;;;;;;;;;;;;;;;20.39;64.72;101642.41;5084987;28;1883;-41
2021/11/09 07:22:49;;;;;;;;;;;;;;;20.07;64.75;101637.75;5094388;28;1713;-40
2021/11/09 07:25:19;;;;;;;;;;;;;;;20.14;64.29;101652.44;5106683;28;1543;-40
2021/11/09 07:27:46;;;;;;;;;;;;;;;20.27;64.84;101654.97;5087665;28;1523;-40
2021/11/09 07:30:16;;;;;;;;;;;;;;;20.17;65.11;101652.16;5091041;28;1934;-40
2021/11/09 07:32:45;;;;;;;;;;;;;;;20.21;65.52;101658.16;5091741;28;1721;-40
2021/11/09 07:35:16;;;;;;;;;;;;;;;20.12;65.69;101646.31;5102877;28;1774;-41
2021/11/09 07:37:43;;;;;;;;;;;;;;;20.27;64.53;101633.50;5082562;28;1704;-41
2021/11/09 07:40:12;;;;;;;;;;;;;;;20.23;64.99;101659.78;5085906;28;1559;-41
2021/11/09 07:42:47;;;;;;;;;;;;;;;20.09;65.56;101656.44;5095103;28;1771;-40
2021/11/09 07:45:14;;;;;;;;;;;;;;;19.98;65.37;101665.38;5094303;28;1335;-42
2021/11/09 07:47:43;;;;;;;;;;;;;;;20.33;65.12;101646.44;5091827;28;2324;-42
2021/11/09 07:50:13;;;;;;;;;;;;;;;20.19;65.97;101636.81;5094705;28;1992;-42
2021/11/09 07:52:49;;;;;;;;;;;;;;;20.07;66.23;101651.19;5089529;28;1696;-42
2021/11/09 07:55:20;;;;;;;;;;;;;;;19.93;66.66;101654.97;5082362;28;1469;-42
2021/11/09 07:57:51;;;;;;;;;;;;;;;20.31;65.37;101656.44;5091513;28;1646;-43
2021/11/09 08:03:07;;;;;;;;;;;;;;;20.19;65.02;101654.75;5089786;28;1886;-42
2021/11/09 08:05:37;;;;;;;;;;;;;;;19.98;67.07;101662.69;5089192;28;1796;-43
2021/11/09 08:08:17;;;;;;;;;;;;;;;20.27;65.81;101671.97;5091400;28;1896;-42
2021/11/09 08:10:47;;;;;;;;;;;;;;;20.32;65.50;101670.75;5085450;28;1986;-41
2021/11/09 08:13:18;;;;;;;;;;;;;;;20.19;66.70;101712.03;5086585;28;1660;-43
2021/11/09 08:15:54;;;;;;;;;;;;;;;20.10;66.32;101691.25;5095376;28;1609;-42
2021/11/09 08:18:24;;;;;;;;;;;;;;;20.13;66.26;101674.03;5089013;28;1661;-42
2021/11/09 08:20:53;;;;;;;;;;;;;;;20.23;65.76;101680.38;5088721;28;1486;-42
2021/11/09 08:23:19;;;;;;;;;;;;;;;20.23;66.35;101692.00;5094608;28;1547;-42
2021/11/09 08:25:48;;;;;;;;;;;;;;;20.02;67.24;101672.19;5078963;28;1625;-42
2021/11/09 08:28:21;;;;;;;;;;;;;;;19.93;66.64;101681.81;5078908;28;1652;-43
2021/11/09 08:31:01;;;;;;;;;;;;;;;20.23;65.45;101658.88;5078094;28;1910;-42
2021/11/09 08:33:29;;;;;;;;;;;;;;;20.22;66.91;101673.31;5082482;28;1549;-43
2021/11/09 08:36:07;;;;;;;;;;;;;;;20.04;67.71;101691.72;5081185;28;1647;-42
2021/11/09 08:38:34;;;;;;;;;;;;;;;19.89;68.54;101714.38;5081758;28;1617;-42
2021/11/09 08:41:05;;;;;;;;;;;;;;;20.25;67.60;101684.66;5081851;28;1484;-42
2021/11/09 08:46:17;;;;;;;;;;;;;;;20.18;68.54;101694.19;5083582;28;2410;-41
2021/11/09 08:48:47;;;;;;;;;;;;;;;20.21;68.28;101714.56;5082934;28;1526;-42
2021/11/09 08:51:21;;;;;;;;;;;;;;;20.35;67.90;101740.34;5079998;28;1988;-42
2021/11/09 08:53:53;;;;;;;;;;;;;;;20.36;68.66;101724.09;5079786;28;1463;-41
2021/11/09 08:56:29;;;;;;;;;;;;;;;20.23;68.95;101728.72;5089321;28;1622;-41
2021/11/09 09:04:26;;;;;;;;;;;;;;;20.33;69.05;101761.09;5086056;28;1590;-42
2021/11/09 09:07:08;;;;;;;;;;;;;;;20.20;68.68;101745.09;5079598;28;1570;-42
2021/11/09 09:09:37;;;;;;;;;;;;;;;20.11;68.24;101753.84;5090963;28;1905;-42
2021/11/09 09:12:04;;;;;;;;;;;;;;;20.36;67.59;101779.66;5091919;28;1803;-42
2021/11/09 09:14:33;;;;;;;;;;;;;;;20.31;67.88;101776.47;5084514;28;1499;-42
2021/11/09 09:17:02;;;;;;;;;;;;;;;20.18;67.82;101769.38;5090052;28;1565;-42
2021/11/09 09:19:34;;;;;;;;;;;;;;;20.15;67.71;101771.44;5087992;28;1497;-42
2021/11/09 09:22:08;;;;;;;;;;;;;;;20.11;68.56;101752.00;5090080;28;2360;-42
2021/11/09 09:24:45;;;;;;;;;;;;;;;20.16;68.19;101744.47;5086417;28;1501;-42
2021/11/09 09:27:24;;;;;;;;;;;;;;;20.11;68.27;101768.13;5094734;28;1985;-42
2021/11/09 09:52:34;;;;;;;;;;;;;;;20.23;67.14;101794.06;5097870;28;1541;-43
2021/11/09 09:55:20;;;;;;;;;;;;;;;20.18;68.35;101817.72;5091904;28;1487;-42
2021/11/09 09:57:48;;;;;;;;;;;;;;;20.19;67.37;101803.31;5089323;28;1615;-43
2021/11/09 10:00:20;;;;;;;;;;;;;;;20.11;68.71;101796.81;5086570;28;1527;-43
2021/11/09 10:02:55;;;;;;;;;;;;;;;19.97;67.82;101773.72;5089072;28;1504;-45
2021/11/09 10:05:23;;;;;;;;;;;;;;;20.03;68.64;101789.34;5094493;28;1626;-44
2021/11/09 10:08:06;;;;;;;;;;;;;;;19.99;68.73;101795.91;5093694;28;1727;-43
2021/11/09 10:10:34;;;;;;;;;;;;;;;19.84;68.57;101804.19;5087164;28;1913;-43
2021/11/09 10:13:18;;;;;;;;;;;;;;;20.20;68.09;101826.50;5094791;28;1373;-44
2021/11/09 10:15:46;;;;;;;;;;;;;;;20.22;67.93;101840.69;5094703;28;1521;-43
2021/11/09 10:18:18;;;;;;;;;;;;;;;20.61;67.78;101827.84;5096937;28;1573;-45
2021/11/09 10:20:47;;;;;;;;;;;;;;;20.70;66.51;101855.00;5096409;28;1743;-40
2021/11/09 10:23:24;;;;;;;;;;;;;;;20.46;66.90;101853.19;5089039;28;1472;-41
2021/11/09 10:25:54;;;;;;;;;;;;;;;20.39;67.42;101862.69;5089045;28;1956;-42
2021/11/09 10:28:26;;;;;;;;;;;;;;;20.53;66.72;101872.38;5092238;28;1515;-43
2021/11/09 10:30:55;;;;;;;;;;;;;;;20.33;67.61;101876.59;5077680;28;1913;-43
2021/11/09 10:33:34;;;;;;;;;;;;;;;20.28;68.21;101844.72;5100631;28;1699;-43
2021/11/09 10:36:03;;;;;;;;;;;;;;;20.29;67.87;101834.84;5079163;28;1525;-42
2021/11/09 10:38:30;;;;;;;;;;;;;;;20.14;67.43;101839.56;5079168;28;1290;-44
2021/11/09 10:41:00;;;;;;;;;;;;;;;20.41;67.77;101840.13;5087926;28;1694;-43
2021/11/09 10:43:33;;;;;;;;;;;;;;;20.55;66.54;101839.06;5100513;28;1528;-43
2021/11/09 10:46:02;;;;;;;;;;;;;;;20.59;66.89;101886.25;5091270;28;1568;-44
2021/11/09 10:48:33;;;;;;;;;;;;;;;20.41;67.25;101879.56;5086260;28;1621;-43
2021/11/09 10:51:01;;;;;;;;;;;;;;;20.45;67.41;101854.16;5093603;28;1987;-41
2021/11/09 10:53:35;;;;;;;;;;;;;;;20.37;67.36;101857.47;5099432;28;1144;-44
2021/11/09 10:56:23;;;;;;;;;;;;;;;20.22;67.58;101867.53;5090550;28;1931;-43
2021/11/09 10:59:21;;;;;;;;;;;;;;;20.44;67.69;101876.66;5087030;28;1560;-43
2021/11/09 11:04:34;;;;;;;;;;;;;;;20.50;66.95;101903.03;5095673;28;1749;-43
2021/11/09 11:07:01;;;;;;;;;;;;;;;20.29;67.17;101896.63;5085032;28;1626;-44
2021/11/09 11:09:28;;;;;;;;;;;;;;;20.33;67.56;101873.91;5085274;28;1719;-45
2021/11/09 11:11:59;;;;;;;;;;;;;;;20.51;67.43;101877.88;5090695;28;1917;-43
2021/11/09 11:14:28;;;;;;;;;;;;;;;20.48;67.61;101867.38;5080687;28;1492;-42
2021/11/09 11:17:02;;;;;;;;;;;;;;;20.32;66.89;101866.84;5083687;28;1509;-42
2021/11/09 11:19:29;;;;;;;;;;;;;;;20.44;67.87;101890.06;5088664;28;1555;-42
2021/11/09 11:22:03;;;;;;;;;;;;;;;20.33;67.00;101900.78;5095394;28;1446;-42
2021/11/09 11:24:39;;;;;;;;;;;;;;;20.49;66.96;101900.47;5096528;28;1503;-43
2021/11/09 11:27:18;;;;;;;;;;;;;;;20.74;66.71;101897.63;5098440;28;1695;-43
2021/11/09 11:29:49;;;;;;;;;;;;;;;20.89;65.77;101887.53;5089716;28;1698;-42
2021/11/09 11:32:17;;;;;;;;;;;;;;;20.65;65.74;101901.91;5090113;28;1905;-43
2021/11/09 11:34:45;;;;;;;;;;;;;;;20.36;67.05;101928.28;5088509;28;1464;-42
2021/11/09 11:37:22;;;;;;;;;;;;;;;20.62;66.49;101931.69;5088940;28;1893;-43
2021/11/09 11:40:02;;;;;;;;;;;;;;;20.73;66.50;101946.13;5087970;28;1338;-42
2021/11/09 11:42:37;;;;;;;;;;;;;;;20.69;66.58;101983.16;5082802;28;1583;-42
2021/11/09 11:45:04;;;;;;;;;;;;;;;20.45;66.95;101972.38;5085988;28;1557;-43
2021/11/09 11:47:32;;;;;;;;;;;;;;;20.57;66.62;101989.41;5089951;28;1817;-42
2021/11/09 11:49:59;;;;;;;;;;;;;;;20.62;66.28;101998.88;5090136;28;1694;-43
2021/11/09 11:52:43;;;;;;;;;;;;;;;20.63;65.97;102005.09;5086825;28;1905;-43
2021/11/09 11:55:19;;;;;;;;;;;;;;;20.38;66.22;101995.31;5085085;28;1656;-43
2021/11/09 11:57:51;;;;;;;;;;;;;;;20.41;66.18;101981.66;5084888;28;1614;-44
2021/11/09 12:00:52;;;;;;;;;;;;;;;20.60;65.72;101990.06;5084287;28;1455;-42
2021/11/09 12:03:53;;;;;;;;;;;;;;;20.59;66.29;101966.88;5087676;28;1593;-42
2021/11/09 12:06:30;;;;;;;;;;;;;;;20.48;66.47;101964.09;5056604;28;1850;-42
2021/11/09 12:08:58;;;;;;;;;;;;;;;20.26;67.08;101979.13;5086634;28;1242;-43
2021/11/09 12:11:40;;;;;;;;;;;;;;;20.10;66.69;101967.84;5085630;28;1906;-42
2021/11/09 12:14:08;;;;;;;;;;;;;;;20.00;67.59;101989.13;5080249;28;1826;-43
2021/11/09 12:17:03;;;;;;;;;;;;;;;19.99;67.30;101978.50;5089210;28;1324;-43
2021/11/09 12:19:48;;;;;;;;;;;;;;;20.27;66.27;101986.25;5086409;28;1539;-41
2021/11/09 12:22:16;;;;;;;;;;;;;;;20.34;66.99;101983.09;5082726;28;1516;-42
2021/11/09 12:24:53;;;;;;;;;;;;;;;20.23;65.85;101991.94;5089725;28;1365;-42
2021/11/09 12:27:29;;;;;;;;;;;;;;;20.04;66.56;101997.81;5088214;28;1513;-41
2021/11/09 12:29:56;;;;;;;;;;;;;;;20.13;66.43;102007.88;5091759;28;1536;-42
2021/11/09 12:32:30;;;;;;;;;;;;;;;20.32;66.75;102018.13;5094536;28;1977;-41
2021/11/09 12:34:58;;;;;;;;;;;;;;;20.39;66.24;102031.94;5084878;28;1566;-41
2021/11/09 12:37:27;;;;;;;;;;;;;;;20.23;66.49;102046.53;5088229;28;1654;-43
2021/11/09 12:40:11;;;;;;;;;;;;;;;20.02;65.99;102070.44;5089483;28;1743;-43
2021/11/09 12:42:53;;;;;;;;;;;;;;;20.10;67.07;102099.41;5095339;28;2298;-43
2021/11/09 12:45:23;;;;;;;;;;;;;;;20.32;66.27;102108.63;5091154;28;2466;-43
2021/11/09 12:48:00;;;;;;;;;;;;;;;20.33;65.96;102118.38;5092722;28;1808;-42
2021/11/09 12:50:39;;;;;;;;;;;;;;;20.07;65.93;102110.38;5093972;28;2033;-42
2021/11/09 12:53:10;;;;;;;;;;;;;;;20.02;66.86;102110.72;5088045;28;1528;-43
2021/11/09 12:55:43;;;;;;;;;;;;;;;20.19;66.52;102122.94;5089985;28;1540;-43
2021/11/09 12:58:20;;;;;;;;;;;;;;;20.31;65.58;102126.53;5094377;28;1660;-43
2021/11/09 13:01:05;;;;;;;;;;;;;;;20.25;65.21;102135.94;5083831;28;1445;-42
2021/11/09 13:03:35;;;;;;;;;;;;;;;19.98;65.81;102148.63;5090734;28;1583;-43
2021/11/09 13:06:17;;;;;;;;;;;;;;;20.01;66.27;102121.53;5087249;28;1559;-43
2021/11/09 13:09:03;;;;;;;;;;;;;;;20.23;66.31;102147.72;5086201;28;1626;-43
2021/11/09 13:11:38;;;;;;;;;;;;;;;20.29;65.37;102141.06;5088477;28;1964;-42
2021/11/09 13:14:06;;;;;;;;;;;;;;;20.05;65.36;102139.16;5086082;28;1542;-42
2021/11/09 13:16:33;;;;;;;;;;;;;;;19.93;65.77;102140.03;5101263;28;1340;-43
2021/11/09 13:19:07;;;;;;;;;;;;;;;20.05;65.42;102158.84;5090479;28;1900;-42
2021/11/09 13:21:37;;;;;;;;;;;;;;;20.29;65.03;102151.81;5091635;28;1600;-42
2021/11/09 13:24:05;;;;;;;;;;;;;;;20.23;66.26;102167.41;5094625;28;1888;-43
2021/11/09 13:26:32;;;;;;;;;;;;;;;20.05;66.22;102187.50;5096067;28;1441;-43
2021/11/09 13:29:03;;;;;;;;;;;;;;;20.17;65.80;102175.88;5097866;28;1517;-42
2021/11/09 13:31:32;;;;;;;;;;;;;;;20.49;66.22;102159.28;5098551;28;1993;-42
2021/11/09 13:34:02;;;;;;;;;;;;;;;20.39;65.94;102159.13;5084598;28;1587;-42
2021/11/09 13:36:37;;;;;;;;;;;;;;;20.14;66.79;102197.59;5089889;28;1547;-42
2021/11/09 13:39:07;;;;;;;;;;;;;;;20.00;67.17;102195.03;5101169;28;1662;-42
2021/11/09 13:41:37;;;;;;;;;;;;;;;20.15;67.30;102187.72;5099342;28;1564;-42
2021/11/09 13:44:06;;;;;;;;;;;;;;;20.22;68.00;102173.75;5090802;28;1570;-43
2021/11/09 13:46:39;;;;;;;;;;;;;;;19.96;67.45;102198.91;5085165;28;1534;-42
2021/11/09 13:49:06;;;;;;;;;;;;;;;19.97;67.69;102197.91;5088216;28;1554;-42
2021/11/09 13:51:43;;;;;;;;;;;;;;;20.15;67.14;102203.81;5087554;28;2036;-43
2021/11/09 13:54:18;;;;;;;;;;;;;;;20.26;67.77;102246.91;5091252;28;1633;-42
2021/11/09 13:56:48;;;;;;;;;;;;;;;20.07;68.39;102260.75;5102139;28;1601;-42
2021/11/09 13:59:21;;;;;;;;;;;;;;;19.92;68.34;102253.78;5099164;28;1629;-43
2021/11/09 14:01:56;;;;;;;;;;;;;;;20.16;68.22;102286.97;5097414;28;1584;-41
2021/11/09 14:16:07;;;;;;;;;;;;;;;20.19;68.45;102335.13;5085938;28;1736;-41
2021/11/09 14:18:34;;;;;;;;;;;;;;;19.99;68.29;102338.28;5094431;28;1590;-44
2021/11/09 14:23:47;;;;;;;;;;;;;;;20.22;68.50;102313.41;5094990;28;2368;-43
2021/11/09 14:26:19;;;;;;;;;;;;;;;20.19;67.55;102348.56;5098361;28;1534;-42
2021/11/09 14:28:47;;;;;;;;;;;;;;;19.97;67.31;102380.50;5088373;28;1602;-42
2021/11/09 14:31:18;;;;;;;;;;;;;;;19.91;68.45;102410.44;5096722;28;1906;-42
2021/11/09 14:33:55;;;;;;;;;;;;;;;20.20;67.50;102428.16;5093802;28;1569;-42
2021/11/09 14:36:26;;;;;;;;;;;;;;;20.23;68.36;102449.47;5093444;28;1569;-41
2021/11/09 14:39:17;;;;;;;;;;;;;;;19.98;67.75;102444.00;5096435;28;1458;-43
2021/11/09 14:42:12;;;;;;;;;;;;;;;19.93;68.76;102406.69;5098817;28;1524;-42
2021/11/09 14:45:02;;;;;;;;;;;;;;;20.23;67.70;102449.47;5106540;28;1550;-42
2021/11/09 14:47:36;;;;;;;;;;;;;;;20.17;68.15;102465.09;5090988;28;1597;-44
2021/11/09 14:50:12;;;;;;;;;;;;;;;19.94;67.90;102421.00;5094030;28;1430;-44
2021/11/09 14:52:42;;;;;;;;;;;;;;;19.89;68.98;102431.16;5093600;28;1964;-45
2021/11/09 14:55:24;;;;;;;;;;;;;;;20.09;67.51;102425.31;5083540;28;1579;-44
2021/11/09 14:57:55;;;;;;;;;;;;;;;20.09;67.55;102457.56;5090989;28;1715;-44
2021/11/09 15:00:22;;;;;;;;;;;;;;;19.88;68.42;102437.50;5092215;28;1443;-43
2021/11/09 15:03:00;;;;;;;;;;;;;;;19.90;67.73;102463.28;5094924;28;1567;-41
2021/11/09 15:05:32;;;;;;;;;;;;;;;20.03;67.58;102468.69;5091505;28;1860;-43
2021/11/09 15:27:34;;;;;;;;;;;;;;;20.17;67.89;102533.13;5101800;28;1729;-42
2021/11/09 15:30:13;;;;;;;;;;;;;;;20.13;68.11;102528.91;5100278;28;1625;-41
2021/11/09 15:32:40;;;;;;;;;;;;;;;20.13;67.43;102533.41;5100117;28;2013;-41
2021/11/09 15:35:14;;;;;;;;;;;;;;;20.02;67.90;102534.13;5097864;28;1500;-41
2021/11/09 15:38:05;;;;;;;;;;;;;;;20.20;67.38;102535.59;5100003;28;1558;-40
2021/11/09 15:40:38;;;;;;;;;;;;;;;20.26;67.27;102550.47;5079516;28;1587;-43
2021/11/09 15:43:07;;;;;;;;;;;;;;;20.27;67.13;102557.56;5095704;28;1479;-42
2021/11/09 15:45:41;;;;;;;;;;;;;;;20.09;67.91;102542.63;5095775;28;1663;-42
2021/11/09 15:48:09;;;;;;;;;;;;;;;20.09;67.96;102553.38;5094359;28;1726;-43